KCMI/CMI METAR and TAF weather

Enter ICAO airport designator
Station Type Date Time Source
KCMI METAR 2024/04/23 03:53 UTC NOAA

KCMI 230353Z 19012KT 10SM CLR 13/01 A2998 RMK AO2 SLP150 T01330011


Station Type Date Time Source
KCMI Decoded METAR 2024/04/23 03:53 UTC NOAA

UNIV OF ILLINOIS-WILLARD, IL, United States (KCMI) 40-02N 088-16W 228M
Apr 22, 2024 - 11:53 PM EDT / 2024.04.23 0353 UTC
Wind: from the S (190 degrees) at 14 MPH (12 KT):0
Visibility: 10 mile(s):0
Sky conditions: clear
Temperature: 55.9 F (13.3 C)
Dew Point: 34.0 F (1.1 C)
Relative Humidity: 43%
Pressure (altimeter): 29.98 in. Hg (1015 hPa)
ob: KCMI 230353Z 19012KT 10SM CLR 13/01 A2998 RMK AO2 SLP150 T01330011
cycle: 4

Station Type Date Time Source
KCMI TAF 2024/04/23 02:03 UTC NOAA